Santo Antonio do Leverger, Brazil
Current Conditions -  °F | °C
As of 7:00 PM on Saturday 25 Oct 2014 (Local Time) from SBCY Reporting Station
Scattered Clouds Scattered Clouds  
Wind Chill: 81°   Ceiling: Unl
Heat Index: 84°   Visibility: 6mi
Dew Point: 70°   Wind: 6mph
Humidity: 70%   Direction: 360°N
Pressure: 29.8"   Gusts: NA
Location:  15.87°S, 56.08°W
Report Text: SBCY 252200Z 36005KT 9999 FEW020 FEW025TCU SCT100 27/21 Q1009
Loading
Personal Weather Stations






























Interactive Weather Map
Tropical Storm Tracking
New forecast layout! Learn more

10-Day Weather Forecast

Advertisements
Track Severe Weather on mobile